sensor_id;sensor_type;location;lat;lon;timestamp;P1;durP1;ratioP1;P2;durP2;ratioP2
54745;SDS011;40640;48.130;11.356;2023-03-01T00:01:13;24.10;;;14.57;;
54745;SDS011;40640;48.130;11.356;2023-03-01T00:05:18;24.13;;;12.75;;
54745;SDS011;40640;48.130;11.356;2023-03-01T00:09:21;27.40;;;15.18;;
54745;SDS011;40640;48.130;11.356;2023-03-01T00:13:25;35.28;;;15.40;;
54745;SDS011;40640;48.130;11.356;2023-03-01T00:17:28;27.08;;;14.07;;
54745;SDS011;40640;48.130;11.356;2023-03-01T00:21:31;30.15;;;15.50;;
54745;SDS011;40640;48.130;11.356;2023-03-01T00:25:40;27.08;;;14.98;;
54745;SDS011;40640;48.130;11.356;2023-03-01T00:29:45;30.48;;;14.88;;
54745;SDS011;40640;48.130;11.356;2023-03-01T00:33:48;28.58;;;15.27;;
54745;SDS011;40640;48.130;11.356;2023-03-01T00:37:51;28.73;;;14.98;;
54745;SDS011;40640;48.130;11.356;2023-03-01T00:41:58;28.77;;;14.85;;
54745;SDS011;40640;48.130;11.356;2023-03-01T00:46:04;27.20;;;13.68;;
54745;SDS011;40640;48.130;11.356;2023-03-01T00:54:11;23.25;;;13.63;;
54745;SDS011;40640;48.130;11.356;2023-03-01T00:58:14;32.08;;;15.77;;
54745;SDS011;40640;48.130;11.356;2023-03-01T01:02:18;28.15;;;13.25;;
54745;SDS011;40640;48.130;11.356;2023-03-01T01:06:23;29.85;;;14.85;;
54745;SDS011;40640;48.130;11.356;2023-03-01T01:10:27;29.23;;;15.77;;
54745;SDS011;40640;48.130;11.356;2023-03-01T01:14:30;28.40;;;14.98;;
54745;SDS011;40640;48.130;11.356;2023-03-01T01:18:34;25.80;;;13.52;;
54745;SDS011;40640;48.130;11.356;2023-03-01T01:22:37;27.58;;;14.60;;
54745;SDS011;40640;48.130;11.356;2023-03-01T01:26:40;28.77;;;14.68;;
54745;SDS011;40640;48.130;11.356;2023-03-01T01:30:43;27.15;;;14.50;;
54745;SDS011;40640;48.130;11.356;2023-03-01T01:34:48;26.38;;;13.40;;
54745;SDS011;40640;48.130;11.356;2023-03-01T01:38:51;28.63;;;14.88;;
54745;SDS011;40640;48.130;11.356;2023-03-01T01:42:54;25.42;;;12.57;;
54745;SDS011;40640;48.130;11.356;2023-03-01T01:46:58;29.65;;;14.68;;
54745;SDS011;40640;48.130;11.356;2023-03-01T01:51:04;28.13;;;15.45;;
54745;SDS011;40640;48.130;11.356;2023-03-01T01:55:08;29.60;;;15.07;;
54745;SDS011;40640;48.130;11.356;2023-03-01T01:59:14;24.77;;;14.93;;
54745;SDS011;40640;48.130;11.356;2023-03-01T02:03:19;30.25;;;15.10;;
54745;SDS011;40640;48.130;11.356;2023-03-01T02:07:31;29.55;;;15.80;;
54745;SDS011;40640;48.130;11.356;2023-03-01T02:11:35;25.63;;;13.13;;
54745;SDS011;40640;48.130;11.356;2023-03-01T02:15:39;32.53;;;15.73;;
54745;SDS011;40640;48.130;11.356;2023-03-01T02:19:50;23.90;;;12.40;;
54745;SDS011;40640;48.130;11.356;2023-03-01T02:24:05;24.27;;;11.95;;
54745;SDS011;40640;48.130;11.356;2023-03-01T02:28:30;28.45;;;14.90;;
54745;SDS011;40640;48.130;11.356;2023-03-01T02:32:34;30.52;;;15.55;;
54745;SDS011;40640;48.130;11.356;2023-03-01T02:36:38;29.10;;;14.95;;
54745;SDS011;40640;48.130;11.356;2023-03-01T02:44:49;28.17;;;14.70;;
54745;SDS011;40640;48.130;11.356;2023-03-01T02:48:53;34.17;;;16.10;;
54745;SDS011;40640;48.130;11.356;2023-03-01T02:52:57;29.23;;;15.25;;
54745;SDS011;40640;48.130;11.356;2023-03-01T02:57:05;26.27;;;14.77;;
54745;SDS011;40640;48.130;11.356;2023-03-01T03:01:10;26.40;;;14.88;;
54745;SDS011;40640;48.130;11.356;2023-03-01T03:05:15;31.20;;;15.07;;
54745;SDS011;40640;48.130;11.356;2023-03-01T03:09:20;29.50;;;14.93;;
54745;SDS011;40640;48.130;11.356;2023-03-01T03:13:23;27.02;;;15.27;;
54745;SDS011;40640;48.130;11.356;2023-03-01T03:17:31;30.08;;;15.20;;
54745;SDS011;40640;48.130;11.356;2023-03-01T03:21:34;25.17;;;14.52;;
54745;SDS011;40640;48.130;11.356;2023-03-01T03:25:37;27.73;;;14.75;;
54745;SDS011;40640;48.130;11.356;2023-03-01T03:29:40;26.50;;;14.55;;
54745;SDS011;40640;48.130;11.356;2023-03-01T03:33:44;25.75;;;15.38;;
54745;SDS011;40640;48.130;11.356;2023-03-01T03:37:47;25.40;;;14.57;;
54745;SDS011;40640;48.130;11.356;2023-03-01T03:42:07;30.20;;;15.70;;
54745;SDS011;40640;48.130;11.356;2023-03-01T03:46:11;25.27;;;13.85;;
54745;SDS011;40640;48.130;11.356;2023-03-01T03:50:16;26.35;;;13.85;;
54745;SDS011;40640;48.130;11.356;2023-03-01T03:54:20;23.50;;;13.67;;
54745;SDS011;40640;48.130;11.356;2023-03-01T03:58:23;25.52;;;14.50;;
54745;SDS011;40640;48.130;11.356;2023-03-01T04:02:26;28.20;;;15.10;;
54745;SDS011;40640;48.130;11.356;2023-03-01T04:06:31;29.45;;;15.50;;
54745;SDS011;40640;48.130;11.356;2023-03-01T04:10:34;25.02;;;14.32;;
54745;SDS011;40640;48.130;11.356;2023-03-01T04:14:38;25.88;;;14.82;;
54745;SDS011;40640;48.130;11.356;2023-03-01T04:18:41;32.13;;;15.30;;
54745;SDS011;40640;48.130;11.356;2023-03-01T04:22:45;29.65;;;15.70;;
54745;SDS011;40640;48.130;11.356;2023-03-01T04:26:48;27.63;;;14.95;;
54745;SDS011;40640;48.130;11.356;2023-03-01T04:30:51;29.58;;;15.93;;
54745;SDS011;40640;48.130;11.356;2023-03-01T04:34:55;29.25;;;16.35;;
54745;SDS011;40640;48.130;11.356;2023-03-01T04:38:59;29.10;;;14.65;;
54745;SDS011;40640;48.130;11.356;2023-03-01T04:43:13;31.00;;;14.23;;
54745;SDS011;40640;48.130;11.356;2023-03-01T04:47:16;30.63;;;16.05;;
54745;SDS011;40640;48.130;11.356;2023-03-01T04:51:19;39.13;;;17.90;;
54745;SDS011;40640;48.130;11.356;2023-03-01T04:55:23;29.92;;;16.42;;
54745;SDS011;40640;48.130;11.356;2023-03-01T04:59:27;32.95;;;15.45;;
54745;SDS011;40640;48.130;11.356;2023-03-01T05:03:30;30.23;;;16.30;;
54745;SDS011;40640;48.130;11.356;2023-03-01T05:07:33;30.15;;;15.75;;
54745;SDS011;40640;48.130;11.356;2023-03-01T05:11:37;29.58;;;16.30;;
54745;SDS011;40640;48.130;11.356;2023-03-01T05:15:40;29.25;;;16.42;;
54745;SDS011;40640;48.130;11.356;2023-03-01T05:19:43;27.38;;;14.85;;
54745;SDS011;40640;48.130;11.356;2023-03-01T05:23:46;29.92;;;15.40;;
54745;SDS011;40640;48.130;11.356;2023-03-01T05:27:50;32.00;;;16.60;;
54745;SDS011;40640;48.130;11.356;2023-03-01T05:31:53;35.58;;;17.52;;
54745;SDS011;40640;48.130;11.356;2023-03-01T05:35:59;34.22;;;14.52;;
54745;SDS011;40640;48.130;11.356;2023-03-01T05:40:02;30.95;;;15.43;;
54745;SDS011;40640;48.130;11.356;2023-03-01T05:44:08;33.20;;;15.75;;
54745;SDS011;40640;48.130;11.356;2023-03-01T05:52:15;36.50;;;16.13;;
54745;SDS011;40640;48.130;11.356;2023-03-01T05:56:18;30.30;;;15.13;;
54745;SDS011;40640;48.130;11.356;2023-03-01T06:00:25;33.30;;;16.83;;
54745;SDS011;40640;48.130;11.356;2023-03-01T06:04:29;29.35;;;15.27;;
54745;SDS011;40640;48.130;11.356;2023-03-01T06:08:32;26.58;;;13.75;;
54745;SDS011;40640;48.130;11.356;2023-03-01T06:12:35;29.52;;;15.68;;
54745;SDS011;40640;48.130;11.356;2023-03-01T06:16:40;28.50;;;14.20;;
54745;SDS011;40640;48.130;11.356;2023-03-01T06:20:43;36.55;;;16.58;;
54745;SDS011;40640;48.130;11.356;2023-03-01T06:24:46;32.75;;;16.08;;
54745;SDS011;40640;48.130;11.356;2023-03-01T06:28:49;34.10;;;16.25;;
54745;SDS011;40640;48.130;11.356;2023-03-01T06:32:53;33.97;;;16.00;;
54745;SDS011;40640;48.130;11.356;2023-03-01T06:37:02;29.42;;;15.13;;
54745;SDS011;40640;48.130;11.356;2023-03-01T06:41:06;34.05;;;17.02;;
54745;SDS011;40640;48.130;11.356;2023-03-01T06:45:09;35.75;;;13.82;;
54745;SDS011;40640;48.130;11.356;2023-03-01T06:49:14;31.58;;;14.80;;
54745;SDS011;40640;48.130;11.356;2023-03-01T06:53:18;30.30;;;14.70;;
54745;SDS011;40640;48.130;11.356;2023-03-01T06:57:21;29.70;;;15.80;;
54745;SDS011;40640;48.130;11.356;2023-03-01T07:01:24;37.25;;;16.88;;
54745;SDS011;40640;48.130;11.356;2023-03-01T07:05:29;32.90;;;17.08;;
54745;SDS011;40640;48.130;11.356;2023-03-01T07:09:32;34.53;;;17.27;;
54745;SDS011;40640;48.130;11.356;2023-03-01T07:13:35;31.52;;;14.93;;
54745;SDS011;40640;48.130;11.356;2023-03-01T07:17:38;30.08;;;15.20;;
54745;SDS011;40640;48.130;11.356;2023-03-01T07:21:42;35.00;;;15.82;;
54745;SDS011;40640;48.130;11.356;2023-03-01T07:25:50;34.92;;;18.10;;
54745;SDS011;40640;48.130;11.356;2023-03-01T07:29:53;31.42;;;16.10;;
54745;SDS011;40640;48.130;11.356;2023-03-01T07:33:56;29.63;;;16.08;;
54745;SDS011;40640;48.130;11.356;2023-03-01T07:38:01;30.08;;;16.38;;
54745;SDS011;40640;48.130;11.356;2023-03-01T07:42:04;37.30;;;16.08;;
54745;SDS011;40640;48.130;11.356;2023-03-01T07:46:07;35.40;;;17.20;;
54745;SDS011;40640;48.130;11.356;2023-03-01T07:50:10;34.50;;;17.02;;
54745;SDS011;40640;48.130;11.356;2023-03-01T07:54:16;30.33;;;13.77;;
54745;SDS011;40640;48.130;11.356;2023-03-01T07:58:19;31.10;;;15.95;;
54745;SDS011;40640;48.130;11.356;2023-03-01T08:02:22;27.83;;;15.23;;
54745;SDS011;40640;48.130;11.356;2023-03-01T08:06:25;34.35;;;15.07;;
54745;SDS011;40640;48.130;11.356;2023-03-01T08:10:29;33.10;;;16.38;;
54745;SDS011;40640;48.130;11.356;2023-03-01T08:14:32;29.52;;;16.55;;
54745;SDS011;40640;48.130;11.356;2023-03-01T08:18:35;28.77;;;16.05;;
54745;SDS011;40640;48.130;11.356;2023-03-01T08:22:38;34.00;;;15.05;;
54745;SDS011;40640;48.130;11.356;2023-03-01T08:26:42;33.67;;;16.63;;
54745;SDS011;40640;48.130;11.356;2023-03-01T08:30:45;36.00;;;17.38;;
54745;SDS011;40640;48.130;11.356;2023-03-01T08:34:48;31.20;;;15.18;;
54745;SDS011;40640;48.130;11.356;2023-03-01T08:38:51;31.33;;;16.17;;
54745;SDS011;40640;48.130;11.356;2023-03-01T08:42:55;31.33;;;16.48;;
54745;SDS011;40640;48.130;11.356;2023-03-01T08:46:58;27.00;;;13.77;;
54745;SDS011;40640;48.130;11.356;2023-03-01T08:51:07;39.80;;;17.17;;
54745;SDS011;40640;48.130;11.356;2023-03-01T08:55:10;29.83;;;15.63;;
54745;SDS011;40640;48.130;11.356;2023-03-01T08:59:15;34.83;;;16.30;;
54745;SDS011;40640;48.130;11.356;2023-03-01T09:03:19;32.50;;;16.80;;
54745;SDS011;40640;48.130;11.356;2023-03-01T09:07:22;31.90;;;17.42;;
54745;SDS011;40640;48.130;11.356;2023-03-01T09:11:29;29.95;;;16.13;;
54745;SDS011;40640;48.130;11.356;2023-03-01T09:15:35;31.02;;;15.48;;
54745;SDS011;40640;48.130;11.356;2023-03-01T09:19:39;32.40;;;17.00;;
54745;SDS011;40640;48.130;11.356;2023-03-01T09:23:42;28.98;;;15.70;;
54745;SDS011;40640;48.130;11.356;2023-03-01T09:27:47;31.30;;;17.15;;
54745;SDS011;40640;48.130;11.356;2023-03-01T09:31:51;31.08;;;15.80;;
54745;SDS011;40640;48.130;11.356;2023-03-01T09:35:56;27.80;;;15.88;;
54745;SDS011;40640;48.130;11.356;2023-03-01T09:39:59;31.38;;;17.30;;
54745;SDS011;40640;48.130;11.356;2023-03-01T09:44:03;28.92;;;16.45;;
54745;SDS011;40640;48.130;11.356;2023-03-01T09:48:15;36.42;;;16.77;;
54745;SDS011;40640;48.130;11.356;2023-03-01T09:52:24;31.10;;;17.00;;
54745;SDS011;40640;48.130;11.356;2023-03-01T09:56:32;30.13;;;15.60;;
54745;SDS011;40640;48.130;11.356;2023-03-01T10:00:42;30.10;;;15.57;;
54745;SDS011;40640;48.130;11.356;2023-03-01T10:04:48;31.92;;;18.00;;
54745;SDS011;40640;48.130;11.356;2023-03-01T10:08:53;31.17;;;16.67;;
54745;SDS011;40640;48.130;11.356;2023-03-01T10:17:03;36.45;;;17.88;;
54745;SDS011;40640;48.130;11.356;2023-03-01T10:21:12;37.58;;;17.98;;
54745;SDS011;40640;48.130;11.356;2023-03-01T10:25:22;36.92;;;16.67;;
54745;SDS011;40640;48.130;11.356;2023-03-01T10:29:34;36.40;;;18.02;;
54745;SDS011;40640;48.130;11.356;2023-03-01T10:33:43;33.90;;;17.35;;
54745;SDS011;40640;48.130;11.356;2023-03-01T10:37:57;31.98;;;17.92;;
54745;SDS011;40640;48.130;11.356;2023-03-01T10:42:05;33.17;;;17.63;;
54745;SDS011;40640;48.130;11.356;2023-03-01T10:46:22;32.20;;;16.08;;
54745;SDS011;40640;48.130;11.356;2023-03-01T10:50:26;29.73;;;16.58;;
54745;SDS011;40640;48.130;11.356;2023-03-01T10:54:31;34.70;;;16.73;;
54745;SDS011;40640;48.130;11.356;2023-03-01T10:58:35;33.22;;;17.38;;
54745;SDS011;40640;48.130;11.356;2023-03-01T11:02:39;33.38;;;15.70;;
54745;SDS011;40640;48.130;11.356;2023-03-01T11:06:42;26.00;;;16.88;;
54745;SDS011;40640;48.130;11.356;2023-03-01T11:10:47;24.30;;;16.20;;
54745;SDS011;40640;48.130;11.356;2023-03-01T11:14:50;21.83;;;16.58;;
54745;SDS011;40640;48.130;11.356;2023-03-01T11:18:56;23.60;;;15.82;;
54745;SDS011;40640;48.130;11.356;2023-03-01T11:23:02;24.00;;;16.15;;
54745;SDS011;40640;48.130;11.356;2023-03-01T11:27:14;24.52;;;16.65;;
54745;SDS011;40640;48.130;11.356;2023-03-01T11:31:21;19.38;;;14.30;;
54745;SDS011;40640;48.130;11.356;2023-03-01T11:35:26;18.23;;;14.70;;
54745;SDS011;40640;48.130;11.356;2023-03-01T11:39:32;17.50;;;14.73;;
54745;SDS011;40640;48.130;11.356;2023-03-01T11:43:44;17.75;;;14.65;;
54745;SDS011;40640;48.130;11.356;2023-03-01T11:47:55;17.98;;;14.68;;
54745;SDS011;40640;48.130;11.356;2023-03-01T11:52:08;19.10;;;14.68;;
54745;SDS011;40640;48.130;11.356;2023-03-01T11:56:20;20.17;;;15.77;;
54745;SDS011;40640;48.130;11.356;2023-03-01T12:00:36;20.98;;;14.95;;
54745;SDS011;40640;48.130;11.356;2023-03-01T12:09:25;18.23;;;16.33;;
54745;SDS011;40640;48.130;11.356;2023-03-01T12:14:05;22.33;;;15.05;;
54745;SDS011;40640;48.130;11.356;2023-03-01T12:18:29;23.02;;;16.48;;
54745;SDS011;40640;48.130;11.356;2023-03-01T12:22:57;21.25;;;16.08;;
54745;SDS011;40640;48.130;11.356;2023-03-01T12:27:26;21.52;;;16.20;;
54745;SDS011;40640;48.130;11.356;2023-03-01T12:31:49;23.88;;;16.17;;
54745;SDS011;40640;48.130;11.356;2023-03-01T12:36:25;21.95;;;16.10;;
54745;SDS011;40640;48.130;11.356;2023-03-01T12:40:46;21.27;;;16.10;;
54745;SDS011;40640;48.130;11.356;2023-03-01T12:50:37;24.77;;;16.88;;
54745;SDS011;40640;48.130;11.356;2023-03-01T12:54:44;21.35;;;16.23;;
54745;SDS011;40640;48.130;11.356;2023-03-01T12:58:51;28.38;;;17.45;;
54745;SDS011;40640;48.130;11.356;2023-03-01T13:03:04;25.27;;;17.52;;
54745;SDS011;40640;48.130;11.356;2023-03-01T13:07:22;21.45;;;16.83;;
54745;SDS011;40640;48.130;11.356;2023-03-01T13:11:33;22.23;;;16.02;;
54745;SDS011;40640;48.130;11.356;2023-03-01T13:15:36;22.40;;;16.30;;
54745;SDS011;40640;48.130;11.356;2023-03-01T13:19:40;20.67;;;17.25;;
54745;SDS011;40640;48.130;11.356;2023-03-01T13:23:59;22.98;;;16.85;;
54745;SDS011;40640;48.130;11.356;2023-03-01T13:32:41;23.60;;;18.40;;
54745;SDS011;40640;48.130;11.356;2023-03-01T13:36:46;24.15;;;17.80;;
54745;SDS011;40640;48.130;11.356;2023-03-01T13:40:57;23.73;;;16.88;;
54745;SDS011;40640;48.130;11.356;2023-03-01T13:45:03;24.27;;;16.45;;
54745;SDS011;40640;48.130;11.356;2023-03-01T13:49:16;25.05;;;17.77;;
54745;SDS011;40640;48.130;11.356;2023-03-01T13:53:22;22.65;;;17.10;;
54745;SDS011;40640;48.130;11.356;2023-03-01T13:57:29;21.73;;;16.52;;
54745;SDS011;40640;48.130;11.356;2023-03-01T14:06:08;26.95;;;18.77;;
54745;SDS011;40640;48.130;11.356;2023-03-01T14:10:18;24.42;;;18.10;;
54745;SDS011;40640;48.130;11.356;2023-03-01T14:18:46;34.47;;;18.98;;
54745;SDS011;40640;48.130;11.356;2023-03-01T14:22:59;26.50;;;16.67;;
54745;SDS011;40640;48.130;11.356;2023-03-01T14:27:04;26.42;;;18.13;;
54745;SDS011;40640;48.130;11.356;2023-03-01T14:31:29;25.15;;;16.83;;
54745;SDS011;40640;48.130;11.356;2023-03-01T14:35:52;28.42;;;17.23;;
54745;SDS011;40640;48.130;11.356;2023-03-01T14:40:00;29.27;;;17.23;;
54745;SDS011;40640;48.130;11.356;2023-03-01T14:44:06;28.15;;;16.90;;
54745;SDS011;40640;48.130;11.356;2023-03-01T14:48:14;29.98;;;17.23;;
54745;SDS011;40640;48.130;11.356;2023-03-01T14:52:18;27.08;;;16.73;;
54745;SDS011;40640;48.130;11.356;2023-03-01T14:56:25;25.08;;;17.33;;
54745;SDS011;40640;48.130;11.356;2023-03-01T15:00:28;26.27;;;17.10;;
54745;SDS011;40640;48.130;11.356;2023-03-01T15:04:32;26.75;;;16.50;;
54745;SDS011;40640;48.130;11.356;2023-03-01T15:08:35;25.63;;;15.57;;
54745;SDS011;40640;48.130;11.356;2023-03-01T15:12:43;30.27;;;17.50;;
54745;SDS011;40640;48.130;11.356;2023-03-01T15:16:46;30.15;;;17.20;;
54745;SDS011;40640;48.130;11.356;2023-03-01T15:20:50;28.50;;;16.05;;
54745;SDS011;40640;48.130;11.356;2023-03-01T15:24:54;31.58;;;17.52;;
54745;SDS011;40640;48.130;11.356;2023-03-01T15:28:59;25.70;;;15.25;;
54745;SDS011;40640;48.130;11.356;2023-03-01T15:37:40;27.58;;;15.80;;
54745;SDS011;40640;48.130;11.356;2023-03-01T15:41:49;32.80;;;16.55;;
54745;SDS011;40640;48.130;11.356;2023-03-01T15:45:56;26.17;;;15.38;;
54745;SDS011;40640;48.130;11.356;2023-03-01T15:50:00;30.23;;;16.02;;
54745;SDS011;40640;48.130;11.356;2023-03-01T15:54:04;27.67;;;15.35;;
54745;SDS011;40640;48.130;11.356;2023-03-01T15:58:10;26.52;;;13.82;;
54745;SDS011;40640;48.130;11.356;2023-03-01T16:02:17;31.40;;;15.40;;
54745;SDS011;40640;48.130;11.356;2023-03-01T16:06:22;31.75;;;15.55;;
54745;SDS011;40640;48.130;11.356;2023-03-01T16:10:25;29.90;;;14.48;;
54745;SDS011;40640;48.130;11.356;2023-03-01T16:14:28;23.13;;;14.60;;
54745;SDS011;40640;48.130;11.356;2023-03-01T16:18:32;33.67;;;15.27;;
54745;SDS011;40640;48.130;11.356;2023-03-01T16:22:35;29.60;;;14.18;;
54745;SDS011;40640;48.130;11.356;2023-03-01T16:26:38;27.40;;;14.43;;
54745;SDS011;40640;48.130;11.356;2023-03-01T16:30:45;27.98;;;15.18;;
54745;SDS011;40640;48.130;11.356;2023-03-01T16:34:51;30.63;;;14.98;;
54745;SDS011;40640;48.130;11.356;2023-03-01T16:38:54;26.52;;;15.10;;
54745;SDS011;40640;48.130;11.356;2023-03-01T16:42:58;31.13;;;14.90;;
54745;SDS011;40640;48.130;11.356;2023-03-01T16:47:02;33.20;;;15.65;;
54745;SDS011;40640;48.130;11.356;2023-03-01T16:51:07;37.03;;;16.17;;
54745;SDS011;40640;48.130;11.356;2023-03-01T16:55:10;35.45;;;16.40;;
54745;SDS011;40640;48.130;11.356;2023-03-01T16:59:13;27.38;;;15.07;;
54745;SDS011;40640;48.130;11.356;2023-03-01T17:03:16;28.90;;;15.93;;
54745;SDS011;40640;48.130;11.356;2023-03-01T17:07:20;28.80;;;15.48;;
54745;SDS011;40640;48.130;11.356;2023-03-01T17:11:23;30.10;;;15.75;;
54745;SDS011;40640;48.130;11.356;2023-03-01T17:15:27;29.25;;;15.15;;
54745;SDS011;40640;48.130;11.356;2023-03-01T17:19:29;31.35;;;16.98;;
54745;SDS011;40640;48.130;11.356;2023-03-01T17:23:34;30.33;;;15.93;;
54745;SDS011;40640;48.130;11.356;2023-03-01T17:27:39;37.92;;;19.48;;
54745;SDS011;40640;48.130;11.356;2023-03-01T17:31:42;34.20;;;20.02;;
54745;SDS011;40640;48.130;11.356;2023-03-01T17:35:45;41.78;;;21.45;;
54745;SDS011;40640;48.130;11.356;2023-03-01T17:39:50;35.30;;;20.27;;
54745;SDS011;40640;48.130;11.356;2023-03-01T17:43:53;41.20;;;22.35;;
54745;SDS011;40640;48.130;11.356;2023-03-01T17:47:56;42.35;;;22.30;;
54745;SDS011;40640;48.130;11.356;2023-03-01T17:51:59;47.85;;;23.65;;
54745;SDS011;40640;48.130;11.356;2023-03-01T17:56:04;52.65;;;25.67;;
54745;SDS011;40640;48.130;11.356;2023-03-01T18:00:09;53.25;;;24.98;;
54745;SDS011;40640;48.130;11.356;2023-03-01T18:04:14;51.38;;;25.10;;
54745;SDS011;40640;48.130;11.356;2023-03-01T18:08:18;48.63;;;24.38;;
54745;SDS011;40640;48.130;11.356;2023-03-01T18:12:23;50.88;;;22.98;;
54745;SDS011;40640;48.130;11.356;2023-03-01T18:16:25;39.22;;;21.55;;
54745;SDS011;40640;48.130;11.356;2023-03-01T18:20:32;46.13;;;24.17;;
54745;SDS011;40640;48.130;11.356;2023-03-01T18:24:35;52.75;;;27.02;;
54745;SDS011;40640;48.130;11.356;2023-03-01T18:28:40;59.40;;;27.30;;
54745;SDS011;40640;48.130;11.356;2023-03-01T18:32:43;63.97;;;28.55;;
54745;SDS011;40640;48.130;11.356;2023-03-01T18:36:46;64.45;;;28.88;;
54745;SDS011;40640;48.130;11.356;2023-03-01T18:41:08;58.22;;;27.65;;
54745;SDS011;40640;48.130;11.356;2023-03-01T18:45:13;65.43;;;30.55;;
54745;SDS011;40640;48.130;11.356;2023-03-01T18:49:17;101.75;;;44.40;;
54745;SDS011;40640;48.130;11.356;2023-03-01T18:53:20;87.30;;;40.05;;
54745;SDS011;40640;48.130;11.356;2023-03-01T18:57:23;59.13;;;30.73;;
54745;SDS011;40640;48.130;11.356;2023-03-01T19:01:28;63.13;;;28.00;;
54745;SDS011;40640;48.130;11.356;2023-03-01T19:05:39;51.45;;;25.85;;
54745;SDS011;40640;48.130;11.356;2023-03-01T19:09:42;59.67;;;28.83;;
54745;SDS011;40640;48.130;11.356;2023-03-01T19:13:45;53.10;;;27.50;;
54745;SDS011;40640;48.130;11.356;2023-03-01T19:17:53;51.78;;;25.90;;
54745;SDS011;40640;48.130;11.356;2023-03-01T19:21:57;50.97;;;26.90;;
54745;SDS011;40640;48.130;11.356;2023-03-01T19:26:07;63.05;;;28.08;;
54745;SDS011;40640;48.130;11.356;2023-03-01T19:30:12;59.90;;;27.73;;
54745;SDS011;40640;48.130;11.356;2023-03-01T19:34:20;60.38;;;28.30;;
54745;SDS011;40640;48.130;11.356;2023-03-01T19:38:27;62.88;;;29.15;;
54745;SDS011;40640;48.130;11.356;2023-03-01T19:42:30;59.47;;;30.05;;
54745;SDS011;40640;48.130;11.356;2023-03-01T19:46:33;59.15;;;28.58;;
54745;SDS011;40640;48.130;11.356;2023-03-01T19:50:38;66.47;;;31.13;;
54745;SDS011;40640;48.130;11.356;2023-03-01T19:54:41;60.08;;;29.55;;
54745;SDS011;40640;48.130;11.356;2023-03-01T19:58:43;57.30;;;28.30;;
54745;SDS011;40640;48.130;11.356;2023-03-01T20:02:47;62.13;;;27.58;;
54745;SDS011;40640;48.130;11.356;2023-03-01T20:06:52;54.28;;;27.42;;
54745;SDS011;40640;48.130;11.356;2023-03-01T20:10:59;53.15;;;26.20;;
54745;SDS011;40640;48.130;11.356;2023-03-01T20:15:03;58.70;;;26.75;;
54745;SDS011;40640;48.130;11.356;2023-03-01T20:19:07;52.60;;;25.50;;
54745;SDS011;40640;48.130;11.356;2023-03-01T20:23:11;54.97;;;26.52;;
54745;SDS011;40640;48.130;11.356;2023-03-01T20:27:14;68.40;;;28.65;;
54745;SDS011;40640;48.130;11.356;2023-03-01T20:31:17;62.80;;;29.70;;
54745;SDS011;40640;48.130;11.356;2023-03-01T20:35:21;61.35;;;29.77;;
54745;SDS011;40640;48.130;11.356;2023-03-01T20:39:25;68.60;;;30.20;;
54745;SDS011;40640;48.130;11.356;2023-03-01T20:43:28;71.43;;;32.78;;
54745;SDS011;40640;48.130;11.356;2023-03-01T20:47:31;65.85;;;31.48;;
54745;SDS011;40640;48.130;11.356;2023-03-01T20:51:34;65.80;;;30.25;;
54745;SDS011;40640;48.130;11.356;2023-03-01T20:55:38;62.10;;;29.48;;
54745;SDS011;40640;48.130;11.356;2023-03-01T20:59:41;60.53;;;29.77;;
54745;SDS011;40640;48.130;11.356;2023-03-01T21:03:44;65.70;;;29.65;;
54745;SDS011;40640;48.130;11.356;2023-03-01T21:07:48;67.25;;;28.60;;
54745;SDS011;40640;48.130;11.356;2023-03-01T21:11:52;57.72;;;24.15;;
54745;SDS011;40640;48.130;11.356;2023-03-01T21:15:56;43.28;;;20.95;;
54745;SDS011;40640;48.130;11.356;2023-03-01T21:20:01;38.63;;;18.25;;
54745;SDS011;40640;48.130;11.356;2023-03-01T21:24:05;37.70;;;16.77;;
54745;SDS011;40640;48.130;11.356;2023-03-01T21:28:11;41.50;;;17.30;;
54745;SDS011;40640;48.130;11.356;2023-03-01T21:32:14;36.70;;;16.65;;
54745;SDS011;40640;48.130;11.356;2023-03-01T21:36:18;34.40;;;16.27;;
54745;SDS011;40640;48.130;11.356;2023-03-01T21:40:21;34.88;;;16.17;;
54745;SDS011;40640;48.130;11.356;2023-03-01T21:44:26;34.83;;;16.58;;
54745;SDS011;40640;48.130;11.356;2023-03-01T21:48:30;35.05;;;15.77;;
54745;SDS011;40640;48.130;11.356;2023-03-01T21:52:34;35.33;;;15.93;;
54745;SDS011;40640;48.130;11.356;2023-03-01T21:56:36;39.47;;;16.58;;
54745;SDS011;40640;48.130;11.356;2023-03-01T22:00:41;27.77;;;14.82;;
54745;SDS011;40640;48.130;11.356;2023-03-01T22:04:44;33.10;;;16.08;;
54745;SDS011;40640;48.130;11.356;2023-03-01T22:08:47;38.40;;;16.75;;
54745;SDS011;40640;48.130;11.356;2023-03-01T22:12:52;38.22;;;16.10;;
54745;SDS011;40640;48.130;11.356;2023-03-01T22:16:56;28.90;;;14.65;;
54745;SDS011;40640;48.130;11.356;2023-03-01T22:21:02;32.85;;;16.40;;
54745;SDS011;40640;48.130;11.356;2023-03-01T22:25:06;35.85;;;16.65;;
54745;SDS011;40640;48.130;11.356;2023-03-01T22:29:10;35.40;;;15.93;;
54745;SDS011;40640;48.130;11.356;2023-03-01T22:33:16;36.17;;;16.90;;
54745;SDS011;40640;48.130;11.356;2023-03-01T22:37:19;39.35;;;15.55;;
54745;SDS011;40640;48.130;11.356;2023-03-01T22:41:21;34.05;;;16.83;;
54745;SDS011;40640;48.130;11.356;2023-03-01T22:45:26;34.30;;;16.33;;
54745;SDS011;40640;48.130;11.356;2023-03-01T22:49:31;34.67;;;16.13;;
54745;SDS011;40640;48.130;11.356;2023-03-01T22:53:34;38.97;;;17.52;;
54745;SDS011;40640;48.130;11.356;2023-03-01T22:57:37;34.10;;;15.35;;
54745;SDS011;40640;48.130;11.356;2023-03-01T23:01:40;37.90;;;16.45;;
54745;SDS011;40640;48.130;11.356;2023-03-01T23:05:49;35.90;;;16.45;;
54745;SDS011;40640;48.130;11.356;2023-03-01T23:09:51;39.40;;;16.52;;
54745;SDS011;40640;48.130;11.356;2023-03-01T23:13:54;34.05;;;15.30;;
54745;SDS011;40640;48.130;11.356;2023-03-01T23:17:59;34.33;;;16.75;;
54745;SDS011;40640;48.130;11.356;2023-03-01T23:22:03;32.17;;;16.02;;
54745;SDS011;40640;48.130;11.356;2023-03-01T23:26:06;35.33;;;17.45;;
54745;SDS011;40640;48.130;11.356;2023-03-01T23:30:09;28.50;;;15.48;;
54745;SDS011;40640;48.130;11.356;2023-03-01T23:34:12;28.25;;;15.40;;
54745;SDS011;40640;48.130;11.356;2023-03-01T23:38:17;31.75;;;15.60;;
54745;SDS011;40640;48.130;11.356;2023-03-01T23:42:21;33.28;;;15.55;;
54745;SDS011;40640;48.130;11.356;2023-03-01T23:46:24;34.83;;;16.90;;
54745;SDS011;40640;48.130;11.356;2023-03-01T23:50:28;32.65;;;15.93;;
54745;SDS011;40640;48.130;11.356;2023-03-01T23:54:32;38.60;;;16.48;;
54745;SDS011;40640;48.130;11.356;2023-03-01T23:58:36;33.40;;;16.60;;
